Time;durP1;ratioP1;P1;durP2;ratioP2;P2;SDS_P1;SDS_P2;PMS_P1;PMS_P2;Temp;Humidity;BMP_temperature;BMP_pressure;BME280_temperature;BME280_humidity;BME280_pressure;Samples;Min_cycle;Max_cycle;Signal;HPM_P1;HPM_P2
2023/03/19 00:01:05;;;;;;;5.47;3.95;;;;;;;7.83;54.70;100065.91;6080050;23;19998;-92
2023/03/19 00:03:30;;;;;;;5.88;4.03;;;;;;;7.84;54.78;100067.53;6104504;23;20005;-92
2023/03/19 00:05:56;;;;;;;7.32;4.80;;;;;;;7.83;54.94;100071.25;6103356;23;20017;-92
2023/03/19 00:08:21;;;;;;;10.25;4.57;;;;;;;7.85;55.16;100071.84;6080044;23;20002;-92
2023/03/19 00:10:47;;;;;;;6.68;4.28;;;;;;;7.93;55.09;100067.16;6079830;23;20345;-92
2023/03/19 00:13:13;;;;;;;6.00;4.30;;;;;;;7.85;55.62;100058.44;6079654;23;20005;-92
2023/03/19 00:15:38;;;;;;;11.32;4.50;;;;;;;7.90;55.04;100066.59;6075358;23;20018;-93
2023/03/19 00:18:05;;;;;;;10.25;5.10;;;;;;;7.95;55.40;100068.59;6075141;23;20034;-93
2023/03/19 00:20:30;;;;;;;7.78;4.25;;;;;;;7.97;55.63;100065.66;6075362;23;20010;-92
2023/03/19 00:22:56;;;;;;;8.38;4.50;;;;;;;7.81;55.47;100062.63;6074183;23;20330;-92
2023/03/19 00:25:21;;;;;;;7.97;4.38;;;;;;;7.70;55.78;100050.06;6075421;23;20003;-92
2023/03/19 00:27:47;;;;;;;8.02;4.78;;;;;;;7.69;56.38;100048.41;6075593;23;20025;-92
2023/03/19 00:30:13;;;;;;;10.05;4.57;;;;;;;7.71;55.93;100053.56;6074930;23;20009;-92
2023/03/19 00:32:39;;;;;;;8.63;4.47;;;;;;;7.74;55.55;100059.28;6074058;23;20013;-92
2023/03/19 00:35:05;;;;;;;7.97;4.72;;;;;;;7.73;55.82;100062.19;6075593;23;20010;-92
2023/03/19 00:37:31;;;;;;;7.85;4.60;;;;;;;7.76;55.47;100057.16;6049799;23;20013;-92
2023/03/19 00:39:57;;;;;;;9.13;4.72;;;;;;;7.73;55.60;100057.63;6051183;23;20003;-92
2023/03/19 00:42:22;;;;;;;9.18;4.30;;;;;;;7.80;56.17;100058.34;6074723;23;20013;-90
2023/03/19 00:44:48;;;;;;;8.35;4.20;;;;;;;7.81;54.99;100054.59;6074405;23;20448;-91
2023/03/19 00:47:13;;;;;;;6.10;4.82;;;;;;;7.72;55.68;100050.66;6074905;23;20480;-91
2023/03/19 00:49:39;;;;;;;7.03;4.55;;;;;;;7.72;55.83;100053.31;6074509;23;20004;-91
2023/03/19 00:52:04;;;;;;;9.48;5.22;;;;;;;7.69;56.11;100054.59;6050863;23;20013;-91
2023/03/19 00:54:31;;;;;;;10.35;5.25;;;;;;;7.78;56.01;100060.44;6074927;23;20398;-91
2023/03/19 00:56:56;;;;;;;6.22;4.43;;;;;;;7.73;56.84;100057.63;6050659;23;20031;-91
2023/03/19 00:59:24;;;;;;;9.98;5.25;;;;;;;7.65;57.87;100071.38;6074831;23;20002;-92
2023/03/19 01:01:50;;;;;;;7.60;4.88;;;;;;;7.69;57.63;100054.59;6075458;23;20086;-91
2023/03/19 01:04:16;;;;;;;8.02;5.57;;;;;;;7.68;58.30;100055.66;6051137;23;20003;-91
2023/03/19 01:06:42;;;;;;;8.35;5.25;;;;;;;7.66;58.52;100060.41;6051409;23;20010;-91
2023/03/19 01:09:08;;;;;;;10.20;5.70;;;;;;;7.75;58.59;100055.53;6074792;23;20065;-91
2023/03/19 01:11:33;;;;;;;9.65;5.25;;;;;;;7.74;58.73;100059.28;6050546;23;20085;-91
2023/03/19 01:13:58;;;;;;;7.88;5.28;;;;;;;7.56;59.57;100064.72;6074643;23;20009;-91
2023/03/19 01:16:24;;;;;;;9.85;5.43;;;;;;;7.61;59.62;100062.16;6090638;23;20106;-90
2023/03/19 01:18:50;;;;;;;9.65;5.53;;;;;;;7.67;59.74;100058.56;6079159;23;20456;-91
2023/03/19 01:21:16;;;;;;;11.27;5.25;;;;;;;7.76;59.50;100059.00;6080281;23;20012;-91
2023/03/19 01:23:41;;;;;;;7.60;4.88;;;;;;;7.72;59.62;100057.84;6079465;23;20002;-91
2023/03/19 01:26:07;;;;;;;8.05;5.80;;;;;;;7.52;59.94;100064.38;6055910;23;20009;-91
2023/03/19 01:28:32;;;;;;;8.80;5.65;;;;;;;7.53;59.93;100059.81;6080558;23;20002;-91
2023/03/19 01:31:04;;;;;;;9.80;5.75;;;;;;;7.51;60.84;100068.06;6080174;23;20023;-90
2023/03/19 01:33:29;;;;;;;9.38;6.10;;;;;;;7.57;60.43;100058.31;6103185;23;20021;-92
2023/03/19 01:35:56;;;;;;;8.88;5.50;;;;;;;7.66;60.57;100062.28;6079880;23;19994;-92
2023/03/19 01:38:22;;;;;;;10.88;5.90;;;;;;;7.79;59.94;100061.25;6080128;23;20006;-91
2023/03/19 01:40:47;;;;;;;8.43;6.03;;;;;;;7.83;59.55;100060.53;6079486;23;20001;-92
2023/03/19 01:43:23;;;;;;;9.52;5.95;;;;;;;7.87;59.46;100071.63;6079105;23;20002;-92
2023/03/19 01:45:50;;;;;;;9.93;5.93;;;;;;;7.78;59.59;100079.19;6129002;23;20010;-92
2023/03/19 01:48:31;;;;;;;8.98;6.47;;;;;;;7.81;59.82;100078.72;6106224;23;20065;-92
2023/03/19 01:50:57;;;;;;;11.52;6.30;;;;;;;7.73;60.29;100072.91;6105861;23;19982;-93
2023/03/19 01:53:27;;;;;;;12.32;6.38;;;;;;;7.75;59.88;100068.94;6081447;23;20326;-92
2023/03/19 01:55:55;;;;;;;9.43;5.70;;;;;;;7.73;60.29;100086.31;6106598;23;20058;-92
2023/03/19 01:58:21;;;;;;;9.65;6.05;;;;;;;7.73;60.36;100064.84;6104308;23;20084;-92
2023/03/19 02:00:46;;;;;;;9.70;6.38;;;;;;;7.80;61.18;100070.91;6081250;23;20005;-92
2023/03/19 02:03:12;;;;;;;9.02;5.30;;;;;;;7.81;61.13;100067.19;6081125;23;20005;-91
2023/03/19 02:05:37;;;;;;;10.10;6.30;;;;;;;7.75;60.86;100060.88;6081681;23;20002;-92
2023/03/19 02:08:05;;;;;;;10.77;6.05;;;;;;;7.73;61.24;100068.34;6080803;23;20038;-92
2023/03/19 02:10:30;;;;;;;10.18;5.88;;;;;;;7.68;61.35;100071.72;6105123;23;20081;-91
2023/03/19 02:12:56;;;;;;;10.82;6.38;;;;;;;7.60;61.70;100074.75;6079911;23;20057;-92
2023/03/19 02:15:21;;;;;;;8.30;5.75;;;;;;;7.36;62.35;100079.25;6081439;23;20028;-92
2023/03/19 02:17:47;;;;;;;11.35;6.40;;;;;;;7.26;62.96;100074.47;6080224;23;20353;-92
2023/03/19 02:20:21;;;;;;;10.75;6.65;;;;;;;7.27;62.83;100081.44;6081721;23;20009;-91
2023/03/19 02:23:16;;;;;;;10.88;6.40;;;;;;;7.45;62.70;100090.44;6105473;23;20089;-92
2023/03/19 02:25:45;;;;;;;11.23;7.30;;;;;;;7.52;62.58;100087.66;6129212;23;20013;-92
2023/03/19 02:28:11;;;;;;;12.88;7.97;;;;;;;7.44;62.97;100088.81;6129825;23;20001;-92
2023/03/19 02:30:37;;;;;;;11.45;7.70;;;;;;;7.40;63.15;100076.94;6104926;23;20080;-92
2023/03/19 02:33:02;;;;;;;13.63;9.00;;;;;;;7.42;63.12;100081.00;6080074;23;20005;-92
2023/03/19 02:35:30;;;;;;;15.77;8.88;;;;;;;7.37;63.23;100083.56;6058048;23;20080;-92
2023/03/19 02:37:56;;;;;;;17.25;8.85;;;;;;;7.35;63.62;100087.53;6105326;23;20468;-92
2023/03/19 02:40:26;;;;;;;17.05;8.50;;;;;;;7.31;64.00;100078.31;6079631;23;20002;-92
2023/03/19 02:42:51;;;;;;;15.23;9.07;;;;;;;7.29;63.90;100081.22;6104599;23;20108;-92
2023/03/19 02:45:17;;;;;;;15.38;8.95;;;;;;;7.27;64.06;100091.34;6080921;23;20002;-92
2023/03/19 02:47:45;;;;;;;13.10;8.32;;;;;;;7.19;64.12;100070.25;6080860;23;20009;-92
2023/03/19 02:50:11;;;;;;;13.63;8.75;;;;;;;7.29;64.05;100086.56;6080582;23;20002;-92
2023/03/19 02:52:37;;;;;;;18.75;9.32;;;;;;;7.20;64.22;100069.19;6081017;23;20005;-92
2023/03/19 02:55:02;;;;;;;15.00;8.77;;;;;;;7.33;64.08;100081.59;6080927;23;20341;-91
2023/03/19 02:57:28;;;;;;;13.90;8.73;;;;;;;7.39;63.86;100086.84;6080064;23;20404;-92
2023/03/19 02:59:53;;;;;;;17.10;9.38;;;;;;;7.32;63.47;100083.41;6081214;23;19998;-92
2023/03/19 03:02:19;;;;;;;14.75;8.75;;;;;;;7.39;63.63;100094.06;6080457;23;19998;-92
2023/03/19 03:04:44;;;;;;;13.93;8.27;;;;;;;7.42;63.79;100083.69;6080961;23;20005;-92
2023/03/19 03:07:10;;;;;;;15.07;8.93;;;;;;;7.38;63.43;100089.72;6081217;23;20034;-92
2023/03/19 03:09:35;;;;;;;17.83;9.35;;;;;;;7.42;63.62;100094.41;6081050;23;20029;-92
2023/03/19 03:12:01;;;;;;;15.18;8.57;;;;;;;7.47;63.30;100080.31;6080356;23;20037;-91
2023/03/19 03:14:26;;;;;;;14.63;8.63;;;;;;;7.49;63.15;100084.41;6079472;23;20001;-92
2023/03/19 03:16:56;;;;;;;15.57;8.25;;;;;;;7.56;64.06;100092.34;6080081;23;20014;-92
2023/03/19 03:19:22;;;;;;;13.57;8.15;;;;;;;7.53;64.88;100091.97;6081987;23;19998;-92
2023/03/19 03:21:47;;;;;;;12.25;8.60;;;;;;;7.46;65.12;100098.25;6080590;23;20353;-92
2023/03/19 03:24:13;;;;;;;14.82;8.40;;;;;;;7.42;65.43;100096.28;6080459;23;19998;-92
2023/03/19 03:26:38;;;;;;;17.25;7.95;;;;;;;7.36;65.75;100100.66;6104031;23;20072;-92
2023/03/19 03:29:05;;;;;;;15.88;8.75;;;;;;;7.29;65.95;100100.78;6080495;23;20009;-92
2023/03/19 03:31:30;;;;;;;13.63;8.35;;;;;;;7.25;66.20;100104.16;6104281;23;20006;-92
2023/03/19 03:33:55;;;;;;;11.57;7.78;;;;;;;7.19;66.20;100105.06;6078804;23;20005;-92
2023/03/19 03:36:21;;;;;;;13.02;7.93;;;;;;;7.16;66.44;100106.34;6080624;23;19997;-93
2023/03/19 03:38:46;;;;;;;12.52;7.65;;;;;;;7.17;66.74;100116.00;6080630;23;20057;-92
2023/03/19 03:41:12;;;;;;;12.32;8.05;;;;;;;7.12;66.64;100110.50;6080686;23;19998;-92
2023/03/19 03:43:38;;;;;;;15.18;8.98;;;;;;;7.14;66.66;100119.13;6079789;23;19998;-91
2023/03/19 03:46:04;;;;;;;14.25;8.35;;;;;;;7.07;66.95;100113.03;6080138;23;19990;-93
2023/03/19 03:48:29;;;;;;;15.43;8.57;;;;;;;7.05;67.27;100107.09;6104097;23;20001;-91
2023/03/19 03:50:58;;;;;;;14.18;8.82;;;;;;;7.12;66.99;100112.34;6078813;23;20045;-92
2023/03/19 03:53:23;;;;;;;13.32;8.50;;;;;;;7.09;67.35;100113.63;6078773;23;20005;-91
2023/03/19 03:55:49;;;;;;;12.82;7.68;;;;;;;7.13;67.05;100111.31;6079733;23;20381;-92
2023/03/19 03:58:14;;;;;;;11.30;8.20;;;;;;;7.17;66.90;100118.66;6080265;23;20381;-92
2023/03/19 04:00:40;;;;;;;14.55;7.60;;;;;;;7.20;66.63;100112.03;6080157;23;20005;-92
2023/03/19 04:03:05;;;;;;;13.30;7.75;;;;;;;7.15;66.47;100106.56;6079923;23;20008;-92
2023/03/19 04:05:31;;;;;;;14.40;7.95;;;;;;;7.18;66.45;100106.94;6080218;23;20009;-92
2023/03/19 04:07:57;;;;;;;14.18;7.75;;;;;;;7.12;66.63;100097.13;6079385;23;20357;-92
2023/03/19 04:10:23;;;;;;;11.57;7.28;;;;;;;7.12;67.32;100105.16;6079376;23;20009;-91
2023/03/19 04:12:48;;;;;;;13.40;7.85;;;;;;;6.89;67.92;100092.50;6056082;23;20006;-92
2023/03/19 04:15:14;;;;;;;12.23;7.25;;;;;;;6.85;68.47;100099.34;6080094;23;20002;-92
2023/03/19 04:17:40;;;;;;;12.60;7.30;;;;;;;6.82;68.37;100089.06;6080414;23;20002;-92
2023/03/19 04:20:06;;;;;;;13.07;7.32;;;;;;;6.86;68.33;100100.97;6080537;23;20005;-91
2023/03/19 04:22:32;;;;;;;13.52;7.32;;;;;;;6.83;68.71;100096.06;6079519;23;20068;-91
2023/03/19 04:24:57;;;;;;;9.95;6.53;;;;;;;6.97;67.49;100097.53;6079961;23;20064;-92
2023/03/19 04:27:23;;;;;;;16.10;7.10;;;;;;;6.97;67.44;100091.34;6079050;23;20002;-92
2023/03/19 04:29:48;;;;;;;9.75;6.53;;;;;;;6.96;67.36;100098.56;6079804;23;20001;-92
2023/03/19 04:32:14;;;;;;;16.90;7.18;;;;;;;6.94;67.36;100089.94;6079939;23;20322;-92
2023/03/19 04:34:40;;;;;;;12.38;7.10;;;;;;;6.97;67.70;100104.72;6080344;23;20015;-92
2023/03/19 04:37:09;;;;;;;9.85;6.47;;;;;;;6.77;67.37;100087.09;6080367;23;20437;-91
2023/03/19 04:39:35;;;;;;;19.10;7.72;;;;;;;6.68;68.37;100091.09;6104307;23;20009;-91
2023/03/19 04:42:00;;;;;;;10.80;7.00;;;;;;;6.65;68.95;100113.78;6079673;23;20002;-92
2023/03/19 04:44:25;;;;;;;12.45;8.07;;;;;;;6.40;69.64;100099.69;6078509;23;20448;-91
2023/03/19 04:46:51;;;;;;;12.38;7.45;;;;;;;6.24;70.60;100109.09;6103361;23;20009;-92
2023/03/19 04:49:17;;;;;;;11.63;7.38;;;;;;;6.14;71.38;100096.22;6079643;23;20005;-92
2023/03/19 04:51:42;;;;;;;11.25;7.07;;;;;;;6.16;70.97;100096.00;6079868;23;20038;-92
2023/03/19 04:54:08;;;;;;;14.13;7.05;;;;;;;6.13;71.13;100099.94;6080444;23;20033;-92
2023/03/19 04:56:34;;;;;;;14.43;7.50;;;;;;;6.25;71.10;100111.56;6080631;23;20089;-93
2023/03/19 04:58:59;;;;;;;16.05;6.60;;;;;;;6.24;70.73;100101.88;6079010;23;20002;-92
2023/03/19 05:01:25;;;;;;;10.77;5.63;;;;;;;6.34;70.26;100089.88;6079765;23;20442;-92
2023/03/19 05:03:51;;;;;;;18.45;7.75;;;;;;;6.39;70.10;100106.06;6079838;23;20053;-91
2023/03/19 05:06:18;;;;;;;12.75;6.47;;;;;;;6.44;70.24;100107.03;6080453;23;20006;-92
2023/03/19 05:08:44;;;;;;;8.93;6.35;;;;;;;6.49;69.94;100103.66;6080292;23;20425;-92
2023/03/19 05:11:10;;;;;;;10.88;6.55;;;;;;;6.45;69.96;100102.47;6079808;23;20002;-92
2023/03/19 05:13:35;;;;;;;10.13;6.00;;;;;;;6.42;70.35;100100.28;6080683;23;20009;-92
2023/03/19 05:16:01;;;;;;;10.85;7.00;;;;;;;6.40;70.54;100095.13;6079199;23;20327;-92
2023/03/19 05:18:28;;;;;;;10.75;6.65;;;;;;;6.41;70.34;100099.47;6078956;23;20005;-91
2023/03/19 05:20:54;;;;;;;13.68;7.03;;;;;;;6.40;70.25;100105.03;6079805;23;20001;-92
2023/03/19 05:23:19;;;;;;;19.10;8.98;;;;;;;6.46;70.51;100104.13;6079281;23;20018;-92
2023/03/19 05:25:45;;;;;;;13.80;8.18;;;;;;;6.46;70.73;100102.28;6080072;23;20500;-92
2023/03/19 05:28:11;;;;;;;11.95;7.65;;;;;;;6.44;70.69;100103.53;6079991;23;20045;-91
2023/03/19 05:30:36;;;;;;;15.40;8.60;;;;;;;6.51;70.27;100100.78;6080350;23;20409;-92
2023/03/19 05:33:02;;;;;;;16.38;7.95;;;;;;;6.44;70.51;100100.88;6078825;23;20002;-92
2023/03/19 05:35:30;;;;;;;14.75;8.98;;;;;;;6.50;70.28;100105.31;6079868;23;20069;-92
2023/03/19 05:37:56;;;;;;;15.10;8.73;;;;;;;6.61;70.07;100117.13;6079583;23;20032;-92
2023/03/19 05:40:22;;;;;;;17.08;9.18;;;;;;;6.68;69.39;100112.50;6079751;23;20002;-92
2023/03/19 05:42:48;;;;;;;21.23;9.10;;;;;;;6.67;69.21;100110.88;6079021;23;20065;-92
2023/03/19 05:45:14;;;;;;;14.13;8.70;;;;;;;6.85;68.81;100118.91;6103407;23;20045;-91
2023/03/19 05:47:39;;;;;;;11.65;7.63;;;;;;;6.83;68.80;100117.50;6055760;23;20010;-92
2023/03/19 05:50:06;;;;;;;17.38;8.20;;;;;;;6.75;68.53;100102.56;6079217;23;20002;-92
2023/03/19 05:52:31;;;;;;;16.13;8.65;;;;;;;6.88;68.67;100117.63;6104175;23;20005;-92
2023/03/19 05:54:57;;;;;;;20.73;7.82;;;;;;;6.83;68.67;100107.59;6078765;23;20002;-92
2023/03/19 05:57:22;;;;;;;14.93;8.18;;;;;;;6.91;68.50;100111.84;6079492;23;19998;-92
2023/03/19 05:59:48;;;;;;;14.13;9.05;;;;;;;6.86;68.73;100109.00;6079584;23;20033;-92
2023/03/19 06:02:13;;;;;;;17.80;8.38;;;;;;;6.99;67.82;100119.56;6103099;23;20005;-92
2023/03/19 06:04:39;;;;;;;14.25;8.07;;;;;;;7.09;67.60;100113.63;6079486;23;20034;-92
2023/03/19 06:07:05;;;;;;;15.27;8.70;;;;;;;6.93;68.40;100106.22;6079680;23;20014;-91
2023/03/19 06:09:30;;;;;;;20.42;8.45;;;;;;;7.04;67.35;100103.59;6103247;23;20404;-92
2023/03/19 06:11:56;;;;;;;16.52;8.68;;;;;;;7.08;67.73;100093.28;6079089;23;20001;-92
2023/03/19 06:14:22;;;;;;;17.98;8.88;;;;;;;7.11;68.05;100098.16;6079350;23;20010;-92
2023/03/19 06:16:47;;;;;;;18.38;10.02;;;;;;;7.22;67.33;100099.22;6102995;23;20441;-91
2023/03/19 06:19:13;;;;;;;21.25;10.15;;;;;;;7.23;67.47;100100.88;6078704;23;19993;-93
2023/03/19 06:21:38;;;;;;;18.48;9.73;;;;;;;7.23;67.25;100099.00;6103035;23;20006;-92
2023/03/19 06:24:04;;;;;;;16.77;9.05;;;;;;;7.32;66.36;100080.75;6078476;23;20006;-92
2023/03/19 06:26:30;;;;;;;14.70;9.13;;;;;;;7.42;65.97;100102.44;6079471;23;20002;-92
2023/03/19 06:28:55;;;;;;;16.80;9.07;;;;;;;7.44;65.47;100086.94;6103990;23;20013;-92
2023/03/19 06:31:20;;;;;;;18.90;9.27;;;;;;;7.61;64.86;100084.41;6083241;23;20001;-91
2023/03/19 06:33:46;;;;;;;16.90;9.73;;;;;;;7.55;64.22;100085.31;6082077;23;20002;-91
2023/03/19 06:36:11;;;;;;;18.45;9.45;;;;;;;7.61;64.25;100091.63;6080690;23;20001;-91
2023/03/19 06:38:37;;;;;;;19.83;9.98;;;;;;;7.63;64.55;100095.72;6081002;23;20016;-91
2023/03/19 06:41:05;;;;;;;14.98;9.43;;;;;;;7.84;63.41;100105.09;6081399;23;20077;-92
2023/03/19 06:43:34;;;;;;;18.80;9.23;;;;;;;7.92;62.89;100101.22;6104695;23;20408;-90
2023/03/19 06:46:00;;;;;;;20.05;10.02;;;;;;;8.03;62.42;100096.91;6082123;23;19998;-90
2023/03/19 06:48:25;;;;;;;18.35;9.98;;;;;;;8.01;62.16;100091.78;6104648;23;20072;-89
2023/03/19 06:50:51;;;;;;;15.50;9.18;;;;;;;8.06;62.34;100099.13;6080200;23;20006;-89
2023/03/19 06:53:16;;;;;;;15.35;9.18;;;;;;;7.94;63.13;100093.75;6080786;23;20002;-90
2023/03/19 06:55:44;;;;;;;15.95;8.68;;;;;;;7.79;64.16;100112.19;6080487;23;20076;-90
2023/03/19 06:58:09;;;;;;;15.27;8.93;;;;;;;7.81;64.20;100108.22;6057185;23;20384;-89
2023/03/19 07:00:35;;;;;;;16.45;9.18;;;;;;;7.92;63.41;100106.59;6081155;23;20017;-90
2023/03/19 07:03:01;;;;;;;18.00;8.45;;;;;;;7.88;63.28;100097.38;6081694;23;20088;-91
2023/03/19 07:05:26;;;;;;;14.63;8.13;;;;;;;8.15;62.21;100111.13;6082604;23;20005;-94
2023/03/19 07:07:52;;;;;;;11.88;7.32;;;;;;;8.34;61.93;100113.69;6082187;23;20088;-95
2023/03/19 07:10:18;;;;;;;14.70;8.10;;;;;;;8.43;62.11;100110.44;6081967;23;20016;-95
2023/03/19 07:12:44;;;;;;;15.20;8.45;;;;;;;8.53;61.50;100109.00;6061579;23;20057;-95
2023/03/19 07:15:10;;;;;;;15.20;9.18;;;;;;;8.66;61.06;100100.72;6081839;23;20064;-94
2023/03/19 07:17:35;;;;;;;13.95;7.45;;;;;;;8.65;60.21;100104.44;6104828;23;19998;-95
2023/03/19 07:20:00;;;;;;;11.80;7.45;;;;;;;8.74;59.95;100103.03;6083859;23;20005;-95
2023/03/19 07:22:26;;;;;;;14.48;7.43;;;;;;;8.72;59.87;100099.75;6084230;23;19997;-96
2023/03/19 07:24:51;;;;;;;12.43;6.93;;;;;;;8.85;59.56;100098.66;6085256;23;20032;-96
2023/03/19 07:27:17;;;;;;;14.70;6.65;;;;;;;9.00;58.82;100111.56;6081788;23;20010;-91
2023/03/19 07:29:42;;;;;;;7.60;4.55;;;;;;;9.00;58.54;100101.63;6081831;23;20092;-91
2023/03/19 07:32:09;;;;;;;6.70;3.63;;;;;;;9.03;58.33;100111.91;6084574;23;20036;-91
2023/03/19 07:34:36;;;;;;;10.95;5.32;;;;;;;9.03;58.19;100095.78;6082207;23;20009;-91
2023/03/19 07:37:01;;;;;;;7.28;4.65;;;;;;;9.10;58.13;100096.44;6081552;23;20072;-92
2023/03/19 07:39:27;;;;;;;9.73;5.05;;;;;;;9.29;57.37;100107.78;6081431;23;20010;-90
2023/03/19 07:41:52;;;;;;;9.52;5.03;;;;;;;9.19;58.78;100106.81;6079353;23;20029;-92
2023/03/19 07:44:18;;;;;;;8.70;5.22;;;;;;;9.24;57.16;100085.41;6080327;23;19997;-92
2023/03/19 07:46:43;;;;;;;7.82;4.60;;;;;;;9.46;56.05;100094.41;6081448;23;20010;-94
2023/03/19 07:49:09;;;;;;;8.18;5.07;;;;;;;9.43;55.86;100083.31;6081032;23;20002;-91
2023/03/19 07:51:34;;;;;;;7.95;4.43;;;;;;;9.44;55.33;100077.69;6080616;23;20009;-91
2023/03/19 07:54:00;;;;;;;9.15;4.80;;;;;;;9.59;55.39;100084.38;6082153;23;20056;-91
2023/03/19 07:56:25;;;;;;;9.60;6.00;;;;;;;9.62;55.48;100092.75;6081205;23;20037;-92
2023/03/19 07:58:51;;;;;;;9.05;4.95;;;;;;;9.63;55.76;100074.75;6083065;23;20006;-92
2023/03/19 08:01:17;;;;;;;8.80;5.03;;;;;;;9.53;55.98;100080.00;6081551;23;20002;-92
2023/03/19 08:03:42;;;;;;;7.78;4.88;;;;;;;9.75;55.90;100086.25;6082073;23;20012;-92
2023/03/19 08:06:08;;;;;;;11.48;5.47;;;;;;;9.88;55.10;100079.72;6080611;23;20476;-92
2023/03/19 08:08:34;;;;;;;10.35;6.35;;;;;;;10.02;54.78;100070.25;6081783;23;20012;-93
2023/03/19 08:11:00;;;;;;;9.57;5.00;;;;;;;10.20;54.94;100079.09;6080706;23;20457;-92
2023/03/19 08:13:26;;;;;;;10.35;5.97;;;;;;;10.05;54.91;100074.31;6105873;23;20010;-92
2023/03/19 08:15:52;;;;;;;10.23;5.93;;;;;;;10.13;54.90;100079.28;6080441;23;20018;-91
2023/03/19 08:18:18;;;;;;;9.52;6.20;;;;;;;10.18;54.75;100057.81;6080598;23;20002;-93
2023/03/19 08:20:44;;;;;;;12.55;6.50;;;;;;;10.25;55.04;100074.59;6080140;23;20006;-91
2023/03/19 08:23:13;;;;;;;7.57;5.68;;;;;;;10.26;54.76;100067.34;6105136;23;20006;-90
2023/03/19 08:25:38;;;;;;;12.25;6.30;;;;;;;10.33;53.81;100057.22;6082260;23;19994;-91
2023/03/19 08:28:04;;;;;;;10.65;6.25;;;;;;;10.40;54.39;100071.31;6080433;23;20070;-93
2023/03/19 08:30:30;;;;;;;11.43;6.18;;;;;;;10.46;53.99;100077.59;6080703;23;20460;-92
2023/03/19 08:32:56;;;;;;;8.93;5.75;;;;;;;10.50;53.82;100060.69;6079778;23;20446;-93
2023/03/19 08:35:21;;;;;;;10.75;6.20;;;;;;;10.55;53.93;100059.94;6080572;23;19998;-93
2023/03/19 08:37:47;;;;;;;12.98;6.35;;;;;;;10.63;53.09;100058.69;6080894;23;20009;-94
2023/03/19 08:40:12;;;;;;;11.80;6.90;;;;;;;10.71;53.74;100071.69;6080511;23;20002;-93
2023/03/19 08:42:40;;;;;;;10.00;5.75;;;;;;;10.77;53.11;100061.78;6080329;23;20009;-93
2023/03/19 08:45:09;;;;;;;10.32;6.50;;;;;;;10.76;53.34;100044.81;6081356;23;20008;-92
2023/03/19 08:47:35;;;;;;;11.63;6.55;;;;;;;10.83;53.35;100050.81;6103906;23;20022;-93
2023/03/19 08:50:00;;;;;;;13.95;5.97;;;;;;;11.08;52.80;100057.50;6080284;23;20009;-91
2023/03/19 08:52:26;;;;;;;14.77;6.10;;;;;;;11.26;51.96;100040.97;6081165;23;20061;-92
2023/03/19 08:54:51;;;;;;;9.02;6.22;;;;;;;11.33;51.25;100038.09;6081337;23;20053;-91
2023/03/19 08:57:17;;;;;;;9.82;6.03;;;;;;;11.25;51.58;100036.66;6080884;23;19994;-92
2023/03/19 08:59:42;;;;;;;11.57;5.85;;;;;;;11.31;51.55;100026.75;6081529;23;20002;-93
2023/03/19 09:02:11;;;;;;;7.93;5.65;;;;;;;11.40;50.21;100027.09;6079617;23;20065;-91
2023/03/19 09:04:42;;;;;;;9.10;6.25;;;;;;;11.50;50.09;100019.06;6081580;23;20088;-91
2023/03/19 09:07:11;;;;;;;9.32;5.50;;;;;;;11.47;49.58;100024.97;6082168;23;20032;-91
2023/03/19 09:09:37;;;;;;;9.32;6.20;;;;;;;11.49;49.95;100023.63;6081763;23;20001;-92
2023/03/19 09:12:03;;;;;;;7.93;5.10;;;;;;;11.65;49.05;100019.16;6056587;23;20108;-92
2023/03/19 09:14:28;;;;;;;12.73;6.20;;;;;;;11.78;48.70;100009.81;6079718;23;20006;-92
2023/03/19 09:16:54;;;;;;;9.10;5.90;;;;;;;11.89;48.46;100018.78;6080064;23;20018;-93
2023/03/19 09:19:20;;;;;;;7.68;5.18;;;;;;;11.78;48.58;99998.22;6079975;23;20356;-93
2023/03/19 09:21:45;;;;;;;8.20;4.93;;;;;;;11.87;47.57;100005.56;6080403;23;20340;-93
2023/03/19 09:24:11;;;;;;;7.45;5.05;;;;;;;12.04;47.41;100001.91;6080322;23;19998;-93
2023/03/19 09:26:36;;;;;;;8.70;4.70;;;;;;;12.16;47.32;100012.47;6080560;23;20046;-93
2023/03/19 09:29:02;;;;;;;5.57;3.97;;;;;;;12.25;46.33;100000.09;6081191;23;20006;-93
2023/03/19 09:31:28;;;;;;;8.35;4.25;;;;;;;12.29;45.94;99993.91;6080474;23;20012;-92
2023/03/19 09:33:53;;;;;;;7.57;4.45;;;;;;;12.44;45.92;99997.72;6080440;23;20037;-92
2023/03/19 09:36:19;;;;;;;8.82;4.75;;;;;;;12.52;45.93;100003.44;6079906;23;20001;-93
2023/03/19 09:38:45;;;;;;;7.47;4.38;;;;;;;12.41;45.99;99993.69;6080069;23;20012;-92
2023/03/19 09:41:48;;;;;;;8.43;4.40;;;;;;;12.56;45.49;99998.31;6080466;23;20008;-92
2023/03/19 09:44:28;;;;;;;10.38;4.80;;;;;;;12.66;45.77;99984.81;6079248;23;20002;-92
2023/03/19 09:47:10;;;;;;;7.28;4.22;;;;;;;12.83;44.98;99995.41;6105882;23;20009;-92
2023/03/19 09:49:43;;;;;;;6.45;4.13;;;;;;;12.84;44.62;99979.97;6129219;23;20013;-94
2023/03/19 09:52:36;;;;;;;6.18;3.83;;;;;;;12.88;44.40;99986.47;6104814;23;19998;-93
2023/03/19 09:55:18;;;;;;;6.13;4.22;;;;;;;12.84;44.55;99971.88;6081047;23;19998;-92
2023/03/19 09:57:44;;;;;;;;;;;;;;;12.97;44.22;99974.06;6106026;23;19994;-92
2023/03/19 10:00:20;;;;;;;8.45;4.55;;;;;;;12.77;44.62;99964.03;6129235;23;19960;-94
2023/03/19 10:02:45;;;;;;;5.40;3.72;;;;;;;12.82;44.44;99949.72;6104730;23;20508;-93
2023/03/19 10:05:45;;;;;;;7.13;4.32;;;;;;;12.79;45.69;99958.38;6081220;23;20005;-93
2023/03/19 10:08:48;;;;;;;7.10;3.50;;;;;;;12.84;45.37;99953.75;6106030;23;20013;-93
2023/03/19 10:11:34;;;;;;;6.80;4.25;;;;;;;12.94;44.97;99929.44;6085429;23;20081;-93
2023/03/19 10:14:11;;;;;;;8.30;4.22;;;;;;;13.02;45.07;99947.03;6106594;23;20417;-93
2023/03/19 10:16:37;;;;;;;5.55;3.88;;;;;;;13.00;44.77;99932.97;6130558;23;20121;-93
2023/03/19 10:19:05;;;;;;;5.10;3.75;;;;;;;13.12;44.71;99938.09;6082113;23;20425;-93
2023/03/19 10:21:41;;;;;;;9.75;4.05;;;;;;;13.29;44.25;99941.34;6082889;23;20009;-93
2023/03/19 10:24:09;;;;;;;6.43;4.22;;;;;;;13.41;44.55;99943.78;6106858;23;20362;-93
2023/03/19 10:26:34;;;;;;;7.38;4.32;;;;;;;13.14;44.54;99923.22;6129676;23;19994;-93
2023/03/19 10:29:08;;;;;;;10.52;4.15;;;;;;;13.09;44.75;99925.94;6082180;23;20012;-92
2023/03/19 10:31:46;;;;;;;9.40;5.22;;;;;;;13.34;44.79;99935.97;6106526;23;20030;-93
2023/03/19 10:34:22;;;;;;;8.02;4.35;;;;;;;13.48;44.27;99930.78;6130254;23;20009;-93
2023/03/19 10:36:48;;;;;;;8.70;5.38;;;;;;;13.34;44.39;99908.06;6130418;23;20013;-94
2023/03/19 10:39:15;;;;;;;11.35;6.20;;;;;;;13.59;44.23;99922.63;6080739;23;20002;-93
2023/03/19 10:42:32;;;;;;;6.68;4.50;;;;;;;13.49;43.88;99918.09;6105293;23;20072;-94
2023/03/19 10:45:25;;;;;;;6.03;4.15;;;;;;;13.44;44.17;99907.25;6081215;23;20093;-94
2023/03/19 10:47:51;;;;;;;7.70;4.70;;;;;;;13.32;44.54;99892.16;6129575;23;20006;-93
2023/03/19 10:50:22;;;;;;;7.55;4.20;;;;;;;13.48;44.59;99901.00;6104793;23;20008;-93
2023/03/19 10:53:02;;;;;;;6.82;4.15;;;;;;;13.48;43.80;99883.97;6106162;23;20005;-93
2023/03/19 10:55:30;;;;;;;7.18;3.97;;;;;;;13.59;43.74;99888.25;6108789;23;20017;-93
2023/03/19 10:58:01;;;;;;;6.20;4.07;;;;;;;13.58;44.13;99883.16;6058043;23;20005;-93
2023/03/19 11:00:28;;;;;;;;;;;;;;;13.58;43.93;99878.53;6108744;23;20037;-92
2023/03/19 11:02:54;;;;;;;5.97;3.70;;;;;;;13.49;43.73;99855.84;6131091;23;19931;-94
2023/03/19 11:05:20;;;;;;;7.03;4.40;;;;;;;13.81;43.03;99876.28;6081352;23;20005;-92
2023/03/19 11:07:48;;;;;;;6.20;4.28;;;;;;;13.77;42.97;99865.19;6130013;23;20531;-92
2023/03/19 11:10:14;;;;;;;6.47;3.25;;;;;;;13.83;42.17;99855.97;6106238;23;20001;-92
2023/03/19 11:12:39;;;;;;;7.90;3.60;;;;;;;13.78;42.04;99858.72;6081663;23;20319;-92
2023/03/19 11:15:19;;;;;;;5.45;3.55;;;;;;;13.74;42.53;99863.88;6080627;23;20006;-92
2023/03/19 11:17:46;;;;;;;5.63;3.47;;;;;;;13.88;42.48;99860.53;6104189;23;20005;-92
2023/03/19 11:20:18;;;;;;;5.93;3.55;;;;;;;13.95;42.09;99864.56;6105282;23;20005;-92
2023/03/19 11:22:45;;;;;;;5.53;3.42;;;;;;;13.97;42.23;99863.50;6130020;23;20002;-92
2023/03/19 11:25:18;;;;;;;5.78;3.65;;;;;;;14.14;41.45;99866.66;6106246;23;20088;-93
2023/03/19 11:27:44;;;;;;;5.60;3.30;;;;;;;14.04;41.18;99850.47;6105137;23;20013;-91
2023/03/19 11:30:16;;;;;;;4.63;3.05;;;;;;;14.10;40.67;99852.03;6082303;23;19998;-92